sensor_id;sensor_type;location;lat;lon;timestamp;temperature;humidity
51383;DHT22;37475;43.358;1.248;2023-07-29T00:01:40;20.10;91.80
51383;DHT22;37475;43.358;1.248;2023-07-29T00:04:07;20.00;92.20
51383;DHT22;37475;43.358;1.248;2023-07-29T00:06:35;20.00;92.30
51383;DHT22;37475;43.358;1.248;2023-07-29T00:09:01;19.90;92.40
51383;DHT22;37475;43.358;1.248;2023-07-29T00:11:28;19.90;92.60
51383;DHT22;37475;43.358;1.248;2023-07-29T00:13:53;19.80;92.70
51383;DHT22;37475;43.358;1.248;2023-07-29T00:16:19;19.80;92.90
51383;DHT22;37475;43.358;1.248;2023-07-29T00:18:48;19.80;92.90
51383;DHT22;37475;43.358;1.248;2023-07-29T00:21:14;19.80;92.90
51383;DHT22;37475;43.358;1.248;2023-07-29T00:23:40;19.80;92.90
51383;DHT22;37475;43.358;1.248;2023-07-29T00:26:06;19.90;92.80
51383;DHT22;37475;43.358;1.248;2023-07-29T00:28:32;19.90;92.70
51383;DHT22;37475;43.358;1.248;2023-07-29T00:30:57;20.00;92.40
51383;DHT22;37475;43.358;1.248;2023-07-29T00:33:23;20.00;92.10
51383;DHT22;37475;43.358;1.248;2023-07-29T00:35:49;20.00;91.80
51383;DHT22;37475;43.358;1.248;2023-07-29T00:38:15;20.00;91.80
51383;DHT22;37475;43.358;1.248;2023-07-29T00:40:41;20.00;91.80
51383;DHT22;37475;43.358;1.248;2023-07-29T00:43:08;20.00;91.50
51383;DHT22;37475;43.358;1.248;2023-07-29T00:45:34;20.00;91.20
51383;DHT22;37475;43.358;1.248;2023-07-29T00:48:01;20.10;90.90
51383;DHT22;37475;43.358;1.248;2023-07-29T00:50:29;20.10;90.70
51383;DHT22;37475;43.358;1.248;2023-07-29T00:52:57;20.00;90.60
51383;DHT22;37475;43.358;1.248;2023-07-29T00:55:23;19.70;90.80
51383;DHT22;37475;43.358;1.248;2023-07-29T00:57:50;19.60;91.20
51383;DHT22;37475;43.358;1.248;2023-07-29T01:00:20;19.50;91.20
51383;DHT22;37475;43.358;1.248;2023-07-29T01:02:46;19.30;91.10
51383;DHT22;37475;43.358;1.248;2023-07-29T01:05:14;19.10;91.30
51383;DHT22;37475;43.358;1.248;2023-07-29T01:10:58;19.20;91.80
51383;DHT22;37475;43.358;1.248;2023-07-29T01:13:44;19.30;91.60
51383;DHT22;37475;43.358;1.248;2023-07-29T01:16:20;19.40;91.80
51383;DHT22;37475;43.358;1.248;2023-07-29T01:18:51;19.50;92.10
51383;DHT22;37475;43.358;1.248;2023-07-29T01:21:19;19.40;92.10
51383;DHT22;37475;43.358;1.248;2023-07-29T01:23:46;19.40;92.00
51383;DHT22;37475;43.358;1.248;2023-07-29T01:26:12;19.50;91.80
51383;DHT22;37475;43.358;1.248;2023-07-29T01:28:38;19.50;91.60
51383;DHT22;37475;43.358;1.248;2023-07-29T01:31:16;19.50;91.50
51383;DHT22;37475;43.358;1.248;2023-07-29T01:34:22;19.50;91.60
51383;DHT22;37475;43.358;1.248;2023-07-29T01:36:59;19.40;92.20
51383;DHT22;37475;43.358;1.248;2023-07-29T01:39:29;19.40;92.00
51383;DHT22;37475;43.358;1.248;2023-07-29T01:41:58;19.50;91.70
51383;DHT22;37475;43.358;1.248;2023-07-29T01:44:25;19.50;91.40
51383;DHT22;37475;43.358;1.248;2023-07-29T01:46:51;19.50;91.20
51383;DHT22;37475;43.358;1.248;2023-07-29T01:49:17;19.20;91.70
51383;DHT22;37475;43.358;1.248;2023-07-29T01:51:43;19.20;92.10
51383;DHT22;37475;43.358;1.248;2023-07-29T01:54:09;19.30;92.00
51383;DHT22;37475;43.358;1.248;2023-07-29T01:56:34;19.30;91.70
51383;DHT22;37475;43.358;1.248;2023-07-29T01:59:00;19.30;91.50
51383;DHT22;37475;43.358;1.248;2023-07-29T02:01:26;19.40;91.40
51383;DHT22;37475;43.358;1.248;2023-07-29T02:03:52;19.50;91.20
51383;DHT22;37475;43.358;1.248;2023-07-29T02:06:21;19.50;91.10
51383;DHT22;37475;43.358;1.248;2023-07-29T02:08:47;19.50;91.40
51383;DHT22;37475;43.358;1.248;2023-07-29T02:11:13;19.50;91.20
51383;DHT22;37475;43.358;1.248;2023-07-29T02:13:39;19.50;90.90
51383;DHT22;37475;43.358;1.248;2023-07-29T02:16:05;19.50;90.70
51383;DHT22;37475;43.358;1.248;2023-07-29T02:18:31;19.50;90.60
51383;DHT22;37475;43.358;1.248;2023-07-29T02:20:57;19.50;90.50
51383;DHT22;37475;43.358;1.248;2023-07-29T02:23:22;19.50;90.70
51383;DHT22;37475;43.358;1.248;2023-07-29T02:25:48;19.40;90.60
51383;DHT22;37475;43.358;1.248;2023-07-29T02:28:15;19.40;90.90
51383;DHT22;37475;43.358;1.248;2023-07-29T02:30:41;19.30;91.00
51383;DHT22;37475;43.358;1.248;2023-07-29T02:33:10;19.40;90.80
51383;DHT22;37475;43.358;1.248;2023-07-29T02:35:36;19.40;90.60
51383;DHT22;37475;43.358;1.248;2023-07-29T02:38:02;19.50;90.50
51383;DHT22;37475;43.358;1.248;2023-07-29T02:40:27;19.50;90.30
51383;DHT22;37475;43.358;1.248;2023-07-29T02:42:54;19.40;90.30
51383;DHT22;37475;43.358;1.248;2023-07-29T02:45:20;19.50;90.20
51383;DHT22;37475;43.358;1.248;2023-07-29T02:47:46;19.50;90.10
51383;DHT22;37475;43.358;1.248;2023-07-29T02:50:12;19.50;90.00
51383;DHT22;37475;43.358;1.248;2023-07-29T02:52:38;19.50;89.90
51383;DHT22;37475;43.358;1.248;2023-07-29T02:55:04;19.50;89.90
51383;DHT22;37475;43.358;1.248;2023-07-29T02:57:30;19.30;90.90
51383;DHT22;37475;43.358;1.248;2023-07-29T02:59:56;19.00;91.00
51383;DHT22;37475;43.358;1.248;2023-07-29T03:02:22;18.70;91.40
51383;DHT22;37475;43.358;1.248;2023-07-29T03:04:48;18.60;92.10
51383;DHT22;37475;43.358;1.248;2023-07-29T03:07:14;18.60;92.20
51383;DHT22;37475;43.358;1.248;2023-07-29T03:09:40;18.60;92.70
51383;DHT22;37475;43.358;1.248;2023-07-29T03:12:07;18.60;93.20
51383;DHT22;37475;43.358;1.248;2023-07-29T03:14:33;18.60;93.20
51383;DHT22;37475;43.358;1.248;2023-07-29T03:17:02;18.70;93.20
51383;DHT22;37475;43.358;1.248;2023-07-29T03:19:29;18.80;93.10
51383;DHT22;37475;43.358;1.248;2023-07-29T03:21:55;18.70;93.10
51383;DHT22;37475;43.358;1.248;2023-07-29T03:24:21;18.60;93.50
51383;DHT22;37475;43.358;1.248;2023-07-29T03:26:47;18.50;94.00
51383;DHT22;37475;43.358;1.248;2023-07-29T03:29:13;18.50;94.20
51383;DHT22;37475;43.358;1.248;2023-07-29T03:31:38;18.50;94.40
51383;DHT22;37475;43.358;1.248;2023-07-29T03:34:04;18.50;94.40
51383;DHT22;37475;43.358;1.248;2023-07-29T03:36:30;18.60;94.20
51383;DHT22;37475;43.358;1.248;2023-07-29T03:38:56;18.60;94.00
51383;DHT22;37475;43.358;1.248;2023-07-29T03:41:22;18.70;93.80
51383;DHT22;37475;43.358;1.248;2023-07-29T03:43:47;18.70;93.60
51383;DHT22;37475;43.358;1.248;2023-07-29T03:46:14;18.60;93.70
51383;DHT22;37475;43.358;1.248;2023-07-29T03:48:43;18.60;93.90
51383;DHT22;37475;43.358;1.248;2023-07-29T03:51:09;18.50;93.60
51383;DHT22;37475;43.358;1.248;2023-07-29T03:53:34;18.40;93.40
51383;DHT22;37475;43.358;1.248;2023-07-29T03:56:01;18.40;93.70
51383;DHT22;37475;43.358;1.248;2023-07-29T03:58:26;18.20;93.60
51383;DHT22;37475;43.358;1.248;2023-07-29T04:00:52;18.20;93.70
51383;DHT22;37475;43.358;1.248;2023-07-29T04:03:18;18.30;93.60
51383;DHT22;37475;43.358;1.248;2023-07-29T04:05:44;18.40;93.50
51383;DHT22;37475;43.358;1.248;2023-07-29T04:08:10;18.50;93.30
51383;DHT22;37475;43.358;1.248;2023-07-29T04:10:36;18.40;93.10
51383;DHT22;37475;43.358;1.248;2023-07-29T04:13:03;18.40;93.30
51383;DHT22;37475;43.358;1.248;2023-07-29T04:15:29;18.30;93.80
51383;DHT22;37475;43.358;1.248;2023-07-29T04:17:55;18.20;94.20
51383;DHT22;37475;43.358;1.248;2023-07-29T04:20:21;18.10;94.40
51383;DHT22;37475;43.358;1.248;2023-07-29T04:22:47;18.10;94.70
51383;DHT22;37475;43.358;1.248;2023-07-29T04:25:12;18.10;94.80
51383;DHT22;37475;43.358;1.248;2023-07-29T04:27:39;18.00;94.90
51383;DHT22;37475;43.358;1.248;2023-07-29T04:30:05;18.00;94.90
51383;DHT22;37475;43.358;1.248;2023-07-29T04:32:31;18.10;94.90
51383;DHT22;37475;43.358;1.248;2023-07-29T04:34:57;18.10;94.90
51383;DHT22;37475;43.358;1.248;2023-07-29T04:37:23;18.10;94.80
51383;DHT22;37475;43.358;1.248;2023-07-29T04:39:49;18.20;94.70
51383;DHT22;37475;43.358;1.248;2023-07-29T04:42:15;18.20;94.50
51383;DHT22;37475;43.358;1.248;2023-07-29T04:44:40;18.20;94.50
51383;DHT22;37475;43.358;1.248;2023-07-29T04:47:07;18.10;94.50
51383;DHT22;37475;43.358;1.248;2023-07-29T04:49:33;18.20;94.50
51383;DHT22;37475;43.358;1.248;2023-07-29T04:51:59;18.20;94.40
51383;DHT22;37475;43.358;1.248;2023-07-29T04:54:24;18.10;94.30
51383;DHT22;37475;43.358;1.248;2023-07-29T04:56:51;18.10;94.30
51383;DHT22;37475;43.358;1.248;2023-07-29T04:59:16;18.20;94.30
51383;DHT22;37475;43.358;1.248;2023-07-29T05:01:42;18.30;94.20
51383;DHT22;37475;43.358;1.248;2023-07-29T05:04:09;18.30;94.10
51383;DHT22;37475;43.358;1.248;2023-07-29T05:06:34;18.30;93.90
51383;DHT22;37475;43.358;1.248;2023-07-29T05:09:13;18.40;93.70
51383;DHT22;37475;43.358;1.248;2023-07-29T05:11:43;18.40;93.50
51383;DHT22;37475;43.358;1.248;2023-07-29T05:14:17;18.40;93.50
51383;DHT22;37475;43.358;1.248;2023-07-29T05:16:44;18.30;93.50
51383;DHT22;37475;43.358;1.248;2023-07-29T05:19:10;18.30;93.60
51383;DHT22;37475;43.358;1.248;2023-07-29T05:21:37;18.50;93.60
51383;DHT22;37475;43.358;1.248;2023-07-29T05:24:03;18.50;93.40
51383;DHT22;37475;43.358;1.248;2023-07-29T05:26:29;18.50;93.10
51383;DHT22;37475;43.358;1.248;2023-07-29T05:28:55;18.50;93.10
51383;DHT22;37475;43.358;1.248;2023-07-29T05:31:21;18.60;93.10
51383;DHT22;37475;43.358;1.248;2023-07-29T05:33:47;18.60;93.00
51383;DHT22;37475;43.358;1.248;2023-07-29T05:36:13;18.70;92.80
51383;DHT22;37475;43.358;1.248;2023-07-29T05:38:39;18.60;92.80
51383;DHT22;37475;43.358;1.248;2023-07-29T05:41:05;18.60;92.80
51383;DHT22;37475;43.358;1.248;2023-07-29T05:43:31;18.60;92.70
51383;DHT22;37475;43.358;1.248;2023-07-29T05:45:56;18.50;93.00
51383;DHT22;37475;43.358;1.248;2023-07-29T05:48:22;18.40;93.30
51383;DHT22;37475;43.358;1.248;2023-07-29T05:50:48;18.40;93.50
51383;DHT22;37475;43.358;1.248;2023-07-29T05:53:14;18.50;93.50
51383;DHT22;37475;43.358;1.248;2023-07-29T05:55:40;18.50;93.50
51383;DHT22;37475;43.358;1.248;2023-07-29T05:58:06;18.50;93.40
51383;DHT22;37475;43.358;1.248;2023-07-29T06:00:32;18.60;93.40
51383;DHT22;37475;43.358;1.248;2023-07-29T06:02:57;18.60;93.30
51383;DHT22;37475;43.358;1.248;2023-07-29T06:05:23;18.60;93.10
51383;DHT22;37475;43.358;1.248;2023-07-29T06:07:49;18.70;93.10
51383;DHT22;37475;43.358;1.248;2023-07-29T06:10:15;18.80;93.00
51383;DHT22;37475;43.358;1.248;2023-07-29T06:12:47;18.80;93.00
51383;DHT22;37475;43.358;1.248;2023-07-29T06:15:13;19.00;93.00
51383;DHT22;37475;43.358;1.248;2023-07-29T06:17:39;19.00;92.90
51383;DHT22;37475;43.358;1.248;2023-07-29T06:20:06;19.10;92.70
51383;DHT22;37475;43.358;1.248;2023-07-29T06:22:32;19.10;92.60
51383;DHT22;37475;43.358;1.248;2023-07-29T06:24:58;19.10;92.50
51383;DHT22;37475;43.358;1.248;2023-07-29T06:27:24;19.20;92.50
51383;DHT22;37475;43.358;1.248;2023-07-29T06:29:50;19.30;92.40
51383;DHT22;37475;43.358;1.248;2023-07-29T06:32:16;19.40;92.20
51383;DHT22;37475;43.358;1.248;2023-07-29T06:34:42;19.40;91.80
51383;DHT22;37475;43.358;1.248;2023-07-29T06:37:08;19.60;91.90
51383;DHT22;37475;43.358;1.248;2023-07-29T06:39:33;19.60;91.70
51383;DHT22;37475;43.358;1.248;2023-07-29T06:41:59;19.60;91.50
51383;DHT22;37475;43.358;1.248;2023-07-29T06:44:25;19.80;91.20
51383;DHT22;37475;43.358;1.248;2023-07-29T06:46:51;19.80;91.00
51383;DHT22;37475;43.358;1.248;2023-07-29T06:49:17;19.90;90.50
51383;DHT22;37475;43.358;1.248;2023-07-29T06:51:42;20.00;90.80
51383;DHT22;37475;43.358;1.248;2023-07-29T06:54:08;20.10;90.70
51383;DHT22;37475;43.358;1.248;2023-07-29T06:56:34;20.20;90.50
51383;DHT22;37475;43.358;1.248;2023-07-29T06:59:00;20.30;90.10
51383;DHT22;37475;43.358;1.248;2023-07-29T07:01:25;20.40;90.10
51383;DHT22;37475;43.358;1.248;2023-07-29T07:03:51;20.50;89.80
51383;DHT22;37475;43.358;1.248;2023-07-29T07:06:22;20.60;89.70
51383;DHT22;37475;43.358;1.248;2023-07-29T07:08:50;20.60;89.30
51383;DHT22;37475;43.358;1.248;2023-07-29T07:11:17;20.70;89.20
51383;DHT22;37475;43.358;1.248;2023-07-29T07:13:44;20.70;89.00
51383;DHT22;37475;43.358;1.248;2023-07-29T07:16:09;20.90;89.10
51383;DHT22;37475;43.358;1.248;2023-07-29T07:18:35;21.00;88.60
51383;DHT22;37475;43.358;1.248;2023-07-29T07:21:01;21.10;88.50
51383;DHT22;37475;43.358;1.248;2023-07-29T07:23:26;21.10;88.10
51383;DHT22;37475;43.358;1.248;2023-07-29T07:25:52;21.20;87.40
51383;DHT22;37475;43.358;1.248;2023-07-29T07:28:18;21.40;87.50
51383;DHT22;37475;43.358;1.248;2023-07-29T07:30:44;21.50;87.00
51383;DHT22;37475;43.358;1.248;2023-07-29T07:33:09;21.60;87.00
51383;DHT22;37475;43.358;1.248;2023-07-29T07:35:35;21.70;86.40
51383;DHT22;37475;43.358;1.248;2023-07-29T07:38:01;21.80;86.00
51383;DHT22;37475;43.358;1.248;2023-07-29T07:40:32;21.90;85.60
51383;DHT22;37475;43.358;1.248;2023-07-29T07:42:58;21.80;85.50
51383;DHT22;37475;43.358;1.248;2023-07-29T07:45:24;21.90;85.20
51383;DHT22;37475;43.358;1.248;2023-07-29T07:47:52;22.00;85.30
51383;DHT22;37475;43.358;1.248;2023-07-29T07:50:19;22.00;84.90
51383;DHT22;37475;43.358;1.248;2023-07-29T07:52:45;22.00;84.90
51383;DHT22;37475;43.358;1.248;2023-07-29T07:55:10;22.20;84.80
51383;DHT22;37475;43.358;1.248;2023-07-29T07:57:36;22.40;84.90
51383;DHT22;37475;43.358;1.248;2023-07-29T08:00:02;22.50;84.10
51383;DHT22;37475;43.358;1.248;2023-07-29T08:02:30;22.50;83.50
51383;DHT22;37475;43.358;1.248;2023-07-29T08:04:55;22.70;83.60
51383;DHT22;37475;43.358;1.248;2023-07-29T08:07:21;22.80;82.80
51383;DHT22;37475;43.358;1.248;2023-07-29T08:09:47;23.00;82.30
51383;DHT22;37475;43.358;1.248;2023-07-29T08:12:13;23.10;81.80
51383;DHT22;37475;43.358;1.248;2023-07-29T08:14:38;23.30;81.70
51383;DHT22;37475;43.358;1.248;2023-07-29T08:17:04;23.30;81.40
51383;DHT22;37475;43.358;1.248;2023-07-29T08:19:30;23.50;80.00
51383;DHT22;37475;43.358;1.248;2023-07-29T08:21:56;23.60;80.10
51383;DHT22;37475;43.358;1.248;2023-07-29T08:24:22;23.60;79.50
51383;DHT22;37475;43.358;1.248;2023-07-29T08:26:47;23.70;79.50
51383;DHT22;37475;43.358;1.248;2023-07-29T08:29:13;23.90;79.50
51383;DHT22;37475;43.358;1.248;2023-07-29T08:31:39;24.00;78.70
51383;DHT22;37475;43.358;1.248;2023-07-29T08:34:05;24.10;78.70
51383;DHT22;37475;43.358;1.248;2023-07-29T08:36:30;24.40;79.10
51383;DHT22;37475;43.358;1.248;2023-07-29T08:38:56;24.40;77.90
51383;DHT22;37475;43.358;1.248;2023-07-29T08:41:27;24.50;78.00
51383;DHT22;37475;43.358;1.248;2023-07-29T08:44:07;24.80;78.30
51383;DHT22;37475;43.358;1.248;2023-07-29T08:46:34;25.00;77.00
51383;DHT22;37475;43.358;1.248;2023-07-29T08:49:01;25.00;76.00
51383;DHT22;37475;43.358;1.248;2023-07-29T08:51:28;25.30;75.80
51383;DHT22;37475;43.358;1.248;2023-07-29T08:53:55;25.30;76.00
51383;DHT22;37475;43.358;1.248;2023-07-29T08:56:21;25.20;75.50
51383;DHT22;37475;43.358;1.248;2023-07-29T08:58:48;25.40;75.00
51383;DHT22;37475;43.358;1.248;2023-07-29T09:01:15;25.40;74.90
51383;DHT22;37475;43.358;1.248;2023-07-29T09:03:41;25.60;74.20
51383;DHT22;37475;43.358;1.248;2023-07-29T09:06:07;25.70;74.20
51383;DHT22;37475;43.358;1.248;2023-07-29T09:08:34;25.80;74.90
51383;DHT22;37475;43.358;1.248;2023-07-29T09:11:00;25.80;74.30
51383;DHT22;37475;43.358;1.248;2023-07-29T09:13:26;25.90;73.50
51383;DHT22;37475;43.358;1.248;2023-07-29T09:15:57;26.00;73.10
51383;DHT22;37475;43.358;1.248;2023-07-29T09:18:26;26.10;73.30
51383;DHT22;37475;43.358;1.248;2023-07-29T09:20:53;26.20;72.30
51383;DHT22;37475;43.358;1.248;2023-07-29T09:23:19;26.40;70.70
51383;DHT22;37475;43.358;1.248;2023-07-29T09:25:46;26.30;70.80
51383;DHT22;37475;43.358;1.248;2023-07-29T09:28:16;26.40;71.30
51383;DHT22;37475;43.358;1.248;2023-07-29T09:30:44;26.60;71.10
51383;DHT22;37475;43.358;1.248;2023-07-29T09:33:11;26.80;70.20
51383;DHT22;37475;43.358;1.248;2023-07-29T09:35:38;26.90;69.40
51383;DHT22;37475;43.358;1.248;2023-07-29T09:38:05;27.00;68.70
51383;DHT22;37475;43.358;1.248;2023-07-29T09:40:35;27.00;68.80
51383;DHT22;37475;43.358;1.248;2023-07-29T09:43:03;27.30;69.70
51383;DHT22;37475;43.358;1.248;2023-07-29T09:45:29;27.30;68.70
51383;DHT22;37475;43.358;1.248;2023-07-29T09:47:57;27.30;69.50
51383;DHT22;37475;43.358;1.248;2023-07-29T09:50:24;27.40;67.70
51383;DHT22;37475;43.358;1.248;2023-07-29T09:52:52;27.50;67.60
51383;DHT22;37475;43.358;1.248;2023-07-29T09:55:21;27.60;66.80
51383;DHT22;37475;43.358;1.248;2023-07-29T09:57:57;27.80;66.50
51383;DHT22;37475;43.358;1.248;2023-07-29T10:00:30;27.70;68.60
51383;DHT22;37475;43.358;1.248;2023-07-29T10:02:58;27.80;66.10
51383;DHT22;37475;43.358;1.248;2023-07-29T10:05:28;27.90;65.60
51383;DHT22;37475;43.358;1.248;2023-07-29T10:07:56;28.00;66.40
51383;DHT22;37475;43.358;1.248;2023-07-29T10:10:22;28.00;64.90
51383;DHT22;37475;43.358;1.248;2023-07-29T10:12:50;28.30;65.30
51383;DHT22;37475;43.358;1.248;2023-07-29T10:15:15;28.20;65.70
51383;DHT22;37475;43.358;1.248;2023-07-29T10:17:42;28.30;64.20
51383;DHT22;37475;43.358;1.248;2023-07-29T10:20:09;28.50;65.80
51383;DHT22;37475;43.358;1.248;2023-07-29T10:22:39;28.60;64.70
51383;DHT22;37475;43.358;1.248;2023-07-29T10:25:15;28.60;63.50
51383;DHT22;37475;43.358;1.248;2023-07-29T10:30:13;29.20;64.20
51383;DHT22;37475;43.358;1.248;2023-07-29T10:32:42;29.30;62.80
51383;DHT22;37475;43.358;1.248;2023-07-29T10:35:10;29.40;62.60
51383;DHT22;37475;43.358;1.248;2023-07-29T10:37:38;29.30;62.50
51383;DHT22;37475;43.358;1.248;2023-07-29T10:40:07;29.00;63.00
51383;DHT22;37475;43.358;1.248;2023-07-29T10:42:34;29.30;61.70
51383;DHT22;37475;43.358;1.248;2023-07-29T10:45:02;29.30;61.70
51383;DHT22;37475;43.358;1.248;2023-07-29T10:47:42;29.10;61.80
51383;DHT22;37475;43.358;1.248;2023-07-29T10:50:20;29.20;61.00
51383;DHT22;37475;43.358;1.248;2023-07-29T10:52:51;29.30;63.00
51383;DHT22;37475;43.358;1.248;2023-07-29T10:55:29;29.60;61.60
51383;DHT22;37475;43.358;1.248;2023-07-29T10:58:11;29.70;60.80
51383;DHT22;37475;43.358;1.248;2023-07-29T11:00:42;30.00;61.60
51383;DHT22;37475;43.358;1.248;2023-07-29T11:03:09;30.30;59.60
51383;DHT22;37475;43.358;1.248;2023-07-29T11:11:18;30.30;58.70
51383;DHT22;37475;43.358;1.248;2023-07-29T11:13:43;30.00;57.50
51383;DHT22;37475;43.358;1.248;2023-07-29T11:16:10;30.10;59.40
51383;DHT22;37475;43.358;1.248;2023-07-29T11:18:42;30.00;58.50
51383;DHT22;37475;43.358;1.248;2023-07-29T11:21:09;30.20;59.20
51383;DHT22;37475;43.358;1.248;2023-07-29T11:23:36;30.50;57.70
51383;DHT22;37475;43.358;1.248;2023-07-29T11:26:03;30.10;57.70
51383;DHT22;37475;43.358;1.248;2023-07-29T11:28:30;30.60;57.40
51383;DHT22;37475;43.358;1.248;2023-07-29T11:30:56;30.90;58.30
51383;DHT22;37475;43.358;1.248;2023-07-29T11:33:26;31.00;57.20
51383;DHT22;37475;43.358;1.248;2023-07-29T11:35:53;31.00;58.20
51383;DHT22;37475;43.358;1.248;2023-07-29T11:38:20;30.50;57.00
51383;DHT22;37475;43.358;1.248;2023-07-29T11:40:55;30.50;57.40
51383;DHT22;37475;43.358;1.248;2023-07-29T11:43:21;30.90;58.20
51383;DHT22;37475;43.358;1.248;2023-07-29T11:45:47;31.00;56.80
51383;DHT22;37475;43.358;1.248;2023-07-29T11:48:13;30.70;57.80
51383;DHT22;37475;43.358;1.248;2023-07-29T11:50:39;30.70;57.60
51383;DHT22;37475;43.358;1.248;2023-07-29T11:53:05;30.90;58.60
51383;DHT22;37475;43.358;1.248;2023-07-29T11:55:30;31.10;56.80
51383;DHT22;37475;43.358;1.248;2023-07-29T11:57:58;30.50;58.10
51383;DHT22;37475;43.358;1.248;2023-07-29T12:00:25;30.60;58.00
51383;DHT22;37475;43.358;1.248;2023-07-29T12:02:52;30.80;57.10
51383;DHT22;37475;43.358;1.248;2023-07-29T12:05:18;30.80;57.10
51383;DHT22;37475;43.358;1.248;2023-07-29T12:07:47;30.60;57.70
51383;DHT22;37475;43.358;1.248;2023-07-29T12:10:13;30.50;56.40
51383;DHT22;37475;43.358;1.248;2023-07-29T12:12:46;30.60;57.00
51383;DHT22;37475;43.358;1.248;2023-07-29T12:15:13;31.30;55.70
51383;DHT22;37475;43.358;1.248;2023-07-29T12:17:42;31.90;54.50
51383;DHT22;37475;43.358;1.248;2023-07-29T12:20:09;31.40;54.60
51383;DHT22;37475;43.358;1.248;2023-07-29T12:22:36;31.30;54.00
51383;DHT22;37475;43.358;1.248;2023-07-29T12:25:03;31.50;53.60
51383;DHT22;37475;43.358;1.248;2023-07-29T12:27:30;32.00;54.00
51383;DHT22;37475;43.358;1.248;2023-07-29T12:30:00;31.70;52.80
51383;DHT22;37475;43.358;1.248;2023-07-29T12:32:29;31.10;53.30
51383;DHT22;37475;43.358;1.248;2023-07-29T12:34:55;31.00;54.40
51383;DHT22;37475;43.358;1.248;2023-07-29T12:37:31;31.00;56.20
51383;DHT22;37475;43.358;1.248;2023-07-29T12:39:58;31.00;54.00
51383;DHT22;37475;43.358;1.248;2023-07-29T12:42:24;31.40;54.10
51383;DHT22;37475;43.358;1.248;2023-07-29T12:44:49;31.90;54.60
51383;DHT22;37475;43.358;1.248;2023-07-29T12:47:15;31.80;54.30
51383;DHT22;37475;43.358;1.248;2023-07-29T12:49:41;31.60;53.70
51383;DHT22;37475;43.358;1.248;2023-07-29T12:52:07;31.90;54.40
51383;DHT22;37475;43.358;1.248;2023-07-29T12:54:32;32.40;51.30
51383;DHT22;37475;43.358;1.248;2023-07-29T12:56:58;31.40;54.50
51383;DHT22;37475;43.358;1.248;2023-07-29T12:59:24;31.10;54.90
51383;DHT22;37475;43.358;1.248;2023-07-29T13:01:50;31.00;55.80
51383;DHT22;37475;43.358;1.248;2023-07-29T13:04:15;30.90;55.10
51383;DHT22;37475;43.358;1.248;2023-07-29T13:06:41;31.30;55.40
51383;DHT22;37475;43.358;1.248;2023-07-29T13:09:07;31.10;54.60
51383;DHT22;37475;43.358;1.248;2023-07-29T13:11:33;31.60;54.80
51383;DHT22;37475;43.358;1.248;2023-07-29T13:13:59;31.50;54.50
51383;DHT22;37475;43.358;1.248;2023-07-29T13:16:26;31.50;54.90
51383;DHT22;37475;43.358;1.248;2023-07-29T13:18:52;31.80;54.50
51383;DHT22;37475;43.358;1.248;2023-07-29T13:21:18;32.10;53.50
51383;DHT22;37475;43.358;1.248;2023-07-29T13:23:44;31.60;53.40
51383;DHT22;37475;43.358;1.248;2023-07-29T13:26:09;31.80;51.60
51383;DHT22;37475;43.358;1.248;2023-07-29T13:28:36;32.10;51.20
51383;DHT22;37475;43.358;1.248;2023-07-29T13:31:02;32.50;50.30
51383;DHT22;37475;43.358;1.248;2023-07-29T13:33:28;32.70;50.00
51383;DHT22;37475;43.358;1.248;2023-07-29T13:35:59;32.50;50.20
51383;DHT22;37475;43.358;1.248;2023-07-29T13:38:27;32.80;46.80
51383;DHT22;37475;43.358;1.248;2023-07-29T13:40:53;32.50;47.80
51383;DHT22;37475;43.358;1.248;2023-07-29T13:43:19;33.10;47.30
51383;DHT22;37475;43.358;1.248;2023-07-29T13:45:45;33.90;46.10
51383;DHT22;37475;43.358;1.248;2023-07-29T13:48:10;34.00;44.90
51383;DHT22;37475;43.358;1.248;2023-07-29T13:50:36;33.30;46.70
51383;DHT22;37475;43.358;1.248;2023-07-29T13:53:02;32.90;48.80
51383;DHT22;37475;43.358;1.248;2023-07-29T13:55:28;33.40;47.40
51383;DHT22;37475;43.358;1.248;2023-07-29T13:57:53;33.60;46.30
51383;DHT22;37475;43.358;1.248;2023-07-29T14:00:20;32.40;47.60
51383;DHT22;37475;43.358;1.248;2023-07-29T14:02:46;32.10;48.60
51383;DHT22;37475;43.358;1.248;2023-07-29T14:05:11;32.00;49.00
51383;DHT22;37475;43.358;1.248;2023-07-29T14:07:37;32.50;48.60
51383;DHT22;37475;43.358;1.248;2023-07-29T14:10:04;32.50;47.40
51383;DHT22;37475;43.358;1.248;2023-07-29T14:12:30;32.00;50.50
51383;DHT22;37475;43.358;1.248;2023-07-29T14:14:56;32.20;48.40
51383;DHT22;37475;43.358;1.248;2023-07-29T14:17:21;32.60;48.10
51383;DHT22;37475;43.358;1.248;2023-07-29T14:19:47;32.50;49.00
51383;DHT22;37475;43.358;1.248;2023-07-29T14:22:13;33.60;46.60
51383;DHT22;37475;43.358;1.248;2023-07-29T14:24:39;33.90;45.10
51383;DHT22;37475;43.358;1.248;2023-07-29T14:27:05;33.70;45.10
51383;DHT22;37475;43.358;1.248;2023-07-29T14:29:30;34.00;46.00
51383;DHT22;37475;43.358;1.248;2023-07-29T14:31:57;35.00;44.30
51383;DHT22;37475;43.358;1.248;2023-07-29T14:34:23;35.20;42.90
51383;DHT22;37475;43.358;1.248;2023-07-29T14:36:48;34.20;43.80
51383;DHT22;37475;43.358;1.248;2023-07-29T14:39:14;32.50;47.40
51383;DHT22;37475;43.358;1.248;2023-07-29T14:41:40;31.80;49.20
51383;DHT22;37475;43.358;1.248;2023-07-29T14:44:05;31.40;50.60
51383;DHT22;37475;43.358;1.248;2023-07-29T14:46:31;31.40;50.50
51383;DHT22;37475;43.358;1.248;2023-07-29T14:48:58;31.80;50.40
51383;DHT22;37475;43.358;1.248;2023-07-29T14:51:24;31.80;50.20
51383;DHT22;37475;43.358;1.248;2023-07-29T14:53:49;31.80;50.20
51383;DHT22;37475;43.358;1.248;2023-07-29T14:56:15;31.90;50.80
51383;DHT22;37475;43.358;1.248;2023-07-29T14:58:43;32.40;48.50
51383;DHT22;37475;43.358;1.248;2023-07-29T15:01:10;32.80;47.50
51383;DHT22;37475;43.358;1.248;2023-07-29T15:03:35;33.30;46.50
51383;DHT22;37475;43.358;1.248;2023-07-29T15:06:01;34.00;45.50
51383;DHT22;37475;43.358;1.248;2023-07-29T15:08:28;32.80;47.00
51383;DHT22;37475;43.358;1.248;2023-07-29T15:10:54;32.50;48.80
51383;DHT22;37475;43.358;1.248;2023-07-29T15:13:20;32.30;49.70
51383;DHT22;37475;43.358;1.248;2023-07-29T15:15:46;32.50;49.00
51383;DHT22;37475;43.358;1.248;2023-07-29T15:18:13;31.90;49.30
51383;DHT22;37475;43.358;1.248;2023-07-29T15:20:39;31.50;50.70
51383;DHT22;37475;43.358;1.248;2023-07-29T15:23:05;31.50;51.70
51383;DHT22;37475;43.358;1.248;2023-07-29T15:25:30;31.20;52.10
51383;DHT22;37475;43.358;1.248;2023-07-29T15:27:56;31.20;52.00
51383;DHT22;37475;43.358;1.248;2023-07-29T15:30:23;31.20;51.20
51383;DHT22;37475;43.358;1.248;2023-07-29T15:32:49;31.00;51.90
51383;DHT22;37475;43.358;1.248;2023-07-29T15:35:15;31.00;52.80
51383;DHT22;37475;43.358;1.248;2023-07-29T15:37:40;30.90;52.20
51383;DHT22;37475;43.358;1.248;2023-07-29T15:40:07;30.60;52.60